Wetterdaten: Woche 11.07.11 - 17.07.11 (KW28)
Datum Zeit Temp. Innen Temp. Aussen UV X Diff Temp. Feuchte Inne Feuchte Auss Sonnenschein Luftdruck Regen ab 0,1 Wind Sonnenschein T Regendauer Windben
11.07.2011 00:00 23,7 C 15,7 C 0,0 UV-I 0,0 C 53 % 72 % 0 % 1018,7 hPa 0,0 l/m 0,0 km/h (0 Bft) 0,00 h 1,00 h 0,0 km/h (0 Bft)
11.07.2011 01:00 23,5 C 15,3 C 0,0 UV-I 0,0 C 54 % 75 % 0 % 1018,9 hPa 0,0 l/m 0,0 km/h (0 Bft) 0,00 h 1,00 h 0,0 km/h (0 Bft)
11.07.2011 02:00 23,3 C 14,1 C 0,0 UV-I 0,0 C 54 % 78 % 0 % 1019,1 hPa 0,0 l/m 0,0 km/h (0 Bft) 0,00 h 1,00 h 0,0 km/h (0 Bft)
11.07.2011 03:00 23,1 C 13,6 C 0,1 UV-I 0,0 C 54 % 81 % 0 % 1019,1 hPa 0,0 l/m 0,0 km/h (0 Bft) 0,00 h 1,00 h 0,0 km/h (0 Bft)
11.07.2011 04:00 23,0 C 13,0 C 0,1 UV-I 0,0 C 55 % 83 % 0 % 1019,2 hPa 0,0 l/m 0,0 km/h (0 Bft) 0,00 h 1,00 h 0,0 km/h (0 Bft)
11.07.2011 05:00 22,8 C 12,9 C 0,1 UV-I 0,0 C 55 % 85 % 0 % 1019,3 hPa 0,0 l/m 0,0 km/h (0 Bft) 0,00 h 1,00 h 0,0 km/h (0 Bft)
11.07.2011 06:00 22,8 C 13,4 C 0,3 UV-I 0,1 C 55 % 87 % 2 % 1019,3 hPa 0,0 l/m 0,0 km/h (0 Bft) 0,00 h 0,33 h 0,0 km/h (0 Bft)
11.07.2011 07:00 22,8 C 14,6 C 0,7 UV-I 1,0 C 55 % 86 % 28 % 1019,4 hPa 0,0 l/m 0,0 km/h (0 Bft) 0,00 h 0,00 h 0,0 km/h (0 Bft)
11.07.2011 08:00 23,0 C 16,3 C 1,1 UV-I 1,6 C 55 % 85 % 45 % 1019,9 hPa 0,0 l/m 0,1 km/h (0 Bft) 0,00 h 0,00 h 0,4 km/h (0 Bft)
11.07.2011 09:00 23,2 C 18,0 C 2,4 UV-I 2,8 C 56 % 80 % 71 % 1020,1 hPa 0,0 l/m 0,7 km/h (0 Bft) 0,30 h 0,00 h 1,8 km/h (1 Bft)
11.07.2011 10:00 23,4 C 21,0 C 5,8 UV-I 6,8 C 56 % 66 % 100 % 1020,1 hPa 0,0 l/m 2,9 km/h (1 Bft) 1,00 h 0,00 h 5,2 km/h (1 Bft)
11.07.2011 11:00 23,7 C 22,4 C 5,3 UV-I 6,4 C 55 % 56 % 100 % 1020,3 hPa 0,0 l/m 4,2 km/h (1 Bft) 1,00 h 0,00 h 7,2 km/h (2 Bft)
11.07.2011 12:00 24,1 C 22,9 C 4,0 UV-I 4,7 C 55 % 54 % 100 % 1020,1 hPa 0,0 l/m 4,0 km/h (1 Bft) 1,00 h 0,00 h 6,6 km/h (2 Bft)
11.07.2011 13:00 24,4 C 24,5 C 4,7 UV-I 6,7 C 54 % 50 % 100 % 1020,0 hPa 0,0 l/m 5,1 km/h (1 Bft) 1,00 h 0,00 h 6,4 km/h (2 Bft)
11.07.2011 14:00 25,0 C 25,1 C 4,4 UV-I 5,0 C 53 % 46 % 94 % 1019,9 hPa 0,0 l/m 3,9 km/h (1 Bft) 0,83 h 0,00 h 6,4 km/h (2 Bft)
11.07.2011 15:00 25,5 C 25,0 C 4,5 UV-I 4,3 C 52 % 46 % 98 % 1020,0 hPa 0,0 l/m 4,8 km/h (1 Bft) 1,00 h 0,00 h 7,1 km/h (2 Bft)
11.07.2011 16:00 25,9 C 25,5 C 4,5 UV-I 3,9 C 51 % 45 % 93 % 1019,7 hPa 0,0 l/m 5,7 km/h (1 Bft) 0,80 h 0,00 h 9,1 km/h (2 Bft)
11.07.2011 17:00 26,3 C 25,6 C 4,6 UV-I 4,3 C 50 % 44 % 100 % 1019,4 hPa 0,0 l/m 6,9 km/h (2 Bft) 1,00 h 0,00 h 10,3 km/h (2 Bft)
11.07.2011 18:00 26,6 C 25,6 C 2,1 UV-I 3,3 C 48 % 43 % 71 % 1019,0 hPa 0,0 l/m 4,8 km/h (1 Bft) 0,57 h 0,00 h 6,6 km/h (2 Bft)
11.07.2011 19:00 26,2 C 24,8 C 1,1 UV-I 0,3 C 49 % 44 % 9 % 1018,8 hPa 0,0 l/m 5,2 km/h (1 Bft) 0,00 h 0,00 h 8,1 km/h (2 Bft)
11.07.2011 20:00 25,9 C 23,9 C 0,5 UV-I 0,0 C 49 % 48 % 0 % 1018,2 hPa 0,0 l/m 7,2 km/h (2 Bft) 0,00 h 0,00 h 8,0 km/h (2 Bft)
11.07.2011 21:00 25,6 C 22,5 C 0,2 UV-I 0,0 C 50 % 52 % 0 % 1018,1 hPa 0,0 l/m 2,8 km/h (1 Bft) 0,00 h 0,00 h 3,6 km/h (1 Bft)
11.07.2011 22:00 25,2 C 20,7 C 0,0 UV-I 0,0 C 51 % 57 % 0 % 1018,4 hPa 0,0 l/m 0,5 km/h (0 Bft) 0,00 h 0,00 h 0,9 km/h (0 Bft)
11.07.2011 23:00 24,9 C 19,7 C 0,0 UV-I 0,0 C 52 % 61 % 0 % 1018,5 hPa 0,0 l/m 0,4 km/h (0 Bft) 0,00 h 0,00 h 1,7 km/h (1 Bft)
12.07.2011 00:00 24,6 C 18,9 C 0,0 UV-I 0,0 C 53 % 64 % 0 % 1018,4 hPa 0,0 l/m 1,3 km/h (1 Bft) 0,00 h 0,23 h 2,4 km/h (1 Bft)
12.07.2011 01:00 24,4 C 18,6 C 0,0 UV-I 0,0 C 53 % 66 % 0 % 1018,1 hPa 0,0 l/m 1,9 km/h (1 Bft) 0,00 h 0,23 h 3,2 km/h (1 Bft)
12.07.2011 02:00 24,2 C 17,8 C 0,0 UV-I 0,0 C 54 % 68 % 0 % 1017,7 hPa 0,0 l/m 0,4 km/h (0 Bft) 0,00 h 0,53 h 0,4 km/h (0 Bft)
12.07.2011 03:00 24,1 C 16,8 C 0,0 UV-I 0,0 C 54 % 72 % 0 % 1017,3 hPa 0,0 l/m 0,0 km/h (0 Bft) 0,00 h 0,37 h 0,0 km/h (0 Bft)
12.07.2011 04:00 23,9 C 15,6 C 0,1 UV-I 0,0 C 54 % 75 % 0 % 1016,8 hPa 0,0 l/m 0,0 km/h (0 Bft) 0,00 h 0,83 h 0,0 km/h (0 Bft)
12.07.2011 05:00 23,7 C 14,6 C 0,1 UV-I 0,0 C 54 % 79 % 0 % 1016,4 hPa 0,0 l/m 0,0 km/h (0 Bft) 0,00 h 0,87 h 0,0 km/h (0 Bft)
12.07.2011 06:00 23,6 C 14,3 C 0,4 UV-I 0,0 C 54 % 81 % 0 % 1016,0 hPa 0,0 l/m 0,5 km/h (0 Bft) 0,00 h 0,83 h 0,8 km/h (0 Bft)
12.07.2011 07:00 23,6 C 16,4 C 1,0 UV-I 0,4 C 55 % 79 % 11 % 1015,8 hPa 0,0 l/m 0,5 km/h (0 Bft) 0,00 h 0,60 h 1,9 km/h (1 Bft)
12.07.2011 08:00 23,7 C 19,3 C 2,0 UV-I 3,5 C 55 % 70 % 73 % 1015,6 hPa 0,0 l/m 1,4 km/h (1 Bft) 0,63 h 0,20 h 2,7 km/h (1 Bft)
12.07.2011 09:00 23,9 C 22,0 C 6,0 UV-I 6,5 C 55 % 62 % 100 % 1015,4 hPa 0,0 l/m 2,1 km/h (1 Bft) 1,00 h 0,00 h 4,0 km/h (1 Bft)
12.07.2011 10:00 24,0 C 24,5 C 7,4 UV-I 6,9 C 55 % 54 % 100 % 1014,8 hPa 0,0 l/m 4,0 km/h (1 Bft) 1,00 h 0,00 h 6,1 km/h (2 Bft)
12.07.2011 11:00 24,2 C 26,6 C 6,3 UV-I 6,7 C 55 % 47 % 100 % 1014,5 hPa 0,0 l/m 4,5 km/h (1 Bft) 1,00 h 0,00 h 7,3 km/h (2 Bft)
12.07.2011 12:00 24,6 C 28,2 C 3,8 UV-I 5,7 C 54 % 41 % 100 % 1013,5 hPa 0,0 l/m 7,2 km/h (2 Bft) 1,00 h 0,00 h 12,0 km/h (2 Bft)
12.07.2011 13:00 25,1 C 29,7 C 4,7 UV-I 5,0 C 53 % 36 % 100 % 1012,8 hPa 0,0 l/m 7,5 km/h (2 Bft) 1,00 h 0,00 h 11,4 km/h (2 Bft)
12.07.2011 14:00 25,6 C 29,9 C 4,7 UV-I 3,9 C 51 % 34 % 98 % 1012,2 hPa 0,0 l/m 6,2 km/h (2 Bft) 0,97 h 0,00 h 8,4 km/h (2 Bft)
12.07.2011 15:00 25,9 C 29,2 C 2,7 UV-I 1,5 C 50 % 35 % 44 % 1011,7 hPa 0,0 l/m 4,9 km/h (1 Bft) 0,00 h 0,00 h 7,3 km/h (2 Bft)
12.07.2011 16:00 25,9 C 28,4 C 1,3 UV-I 0,4 C 50 % 38 % 10 % 1010,6 hPa 0,0 l/m 5,2 km/h (1 Bft) 0,00 h 0,27 h 8,2 km/h (2 Bft)
12.07.2011 17:00 25,8 C 25,3 C 0,4 UV-I 0,0 C 51 % 50 % 0 % 1010,2 hPa 0,0 l/m 2,5 km/h (1 Bft) 0,00 h 0,17 h 3,6 km/h (1 Bft)
12.07.2011 18:00 25,6 C 25,2 C 1,1 UV-I 0,4 C 52 % 52 % 11 % 1009,2 hPa 0,0 l/m 2,3 km/h (1 Bft) 0,00 h 0,00 h 4,8 km/h (1 Bft)
12.07.2011 19:00 25,6 C 25,0 C 0,4 UV-I 0,0 C 52 % 54 % 0 % 1008,9 hPa 0,3 l/m 0,7 km/h (0 Bft) 0,00 h 0,40 h 1,4 km/h (1 Bft)
12.07.2011 20:00 25,5 C 22,5 C 0,3 UV-I 0,0 C 53 % 68 % 0 % 1008,4 hPa 0,1 l/m 3,4 km/h (1 Bft) 0,00 h 0,50 h 4,5 km/h (1 Bft)
12.07.2011 21:00 25,3 C 20,5 C 0,1 UV-I 0,0 C 54 % 78 % 0 % 1008,5 hPa 2,2 l/m 3,1 km/h (1 Bft) 0,00 h 0,90 h 4,8 km/h (1 Bft)
12.07.2011 22:00 25,0 C 19,0 C 0,1 UV-I 0,0 C 56 % 85 % 0 % 1008,3 hPa 0,0 l/m 0,4 km/h (0 Bft) 0,00 h 0,67 h 1,2 km/h (1 Bft)
12.07.2011 23:00 24,8 C 18,8 C 0,1 UV-I 0,0 C 58 % 87 % 0 % 1008,0 hPa 0,0 l/m 1,4 km/h (1 Bft) 0,00 h 0,67 h 3,2 km/h (1 Bft)
13.07.2011 00:00 24,7 C 18,5 C 0,1 UV-I 0,0 C 58 % 88 % 0 % 1008,2 hPa 0,0 l/m 3,2 km/h (1 Bft) 0,00 h 0,73 h 5,6 km/h (1 Bft)
13.07.2011 01:00 24,5 C 17,6 C 0,1 UV-I 0,0 C 59 % 88 % 0 % 1007,7 hPa 0,0 l/m 7,3 km/h (2 Bft) 0,00 h 0,83 h 10,3 km/h (2 Bft)
13.07.2011 02:00 24,3 C 16,9 C 0,1 UV-I 0,0 C 59 % 89 % 0 % 1007,8 hPa 0,0 l/m 6,1 km/h (2 Bft) 0,00 h 0,90 h 8,8 km/h (2 Bft)
13.07.2011 03:00 24,2 C 16,5 C 0,1 UV-I 0,0 C 59 % 89 % 0 % 1008,0 hPa 0,0 l/m 4,2 km/h (1 Bft) 0,00 h 0,90 h 6,5 km/h (2 Bft)
13.07.2011 04:00 24,1 C 16,2 C 0,1 UV-I 0,0 C 59 % 89 % 0 % 1008,1 hPa 0,0 l/m 1,5 km/h (1 Bft) 0,00 h 0,83 h 3,2 km/h (1 Bft)
13.07.2011 05:00 24,0 C 15,7 C 0,1 UV-I 0,0 C 59 % 90 % 0 % 1008,0 hPa 0,0 l/m 3,0 km/h (1 Bft) 0,00 h 0,93 h 6,1 km/h (2 Bft)
13.07.2011 06:00 23,8 C 15,1 C 0,1 UV-I 0,0 C 59 % 91 % 0 % 1007,8 hPa 0,0 l/m 1,9 km/h (1 Bft) 0,00 h 1,00 h 2,6 km/h (1 Bft)
13.07.2011 07:00 23,7 C 14,8 C 0,3 UV-I 0,0 C 59 % 92 % 0 % 1008,2 hPa 0,0 l/m 1,9 km/h (1 Bft) 0,00 h 0,97 h 4,2 km/h (1 Bft)
13.07.2011 08:00 23,6 C 14,8 C 0,4 UV-I 0,0 C 59 % 92 % 0 % 1008,6 hPa 0,0 l/m 1,2 km/h (1 Bft) 0,00 h 0,93 h 2,7 km/h (1 Bft)
13.07.2011 09:00 23,6 C 14,9 C 0,7 UV-I 0,1 C 59 % 92 % 2 % 1008,7 hPa 0,0 l/m 3,8 km/h (1 Bft) 0,00 h 0,93 h 6,6 km/h (2 Bft)
13.07.2011 10:00 23,6 C 15,2 C 1,2 UV-I 0,3 C 59 % 92 % 9 % 1008,6 hPa 0,1 l/m 5,5 km/h (1 Bft) 0,00 h 0,80 h 10,1 km/h (2 Bft)
13.07.2011 11:00 23,7 C 15,4 C 1,5 UV-I 0,9 C 59 % 91 % 26 % 1008,8 hPa 0,0 l/m 7,3 km/h (2 Bft) 0,00 h 0,77 h 12,2 km/h (2 Bft)
13.07.2011 12:00 23,7 C 15,4 C 1,0 UV-I 0,3 C 58 % 90 % 8 % 1009,0 hPa 0,0 l/m 4,1 km/h (1 Bft) 0,00 h 0,90 h 7,1 km/h (2 Bft)
13.07.2011 13:00 23,5 C 15,0 C 1,2 UV-I 0,0 C 58 % 91 % 0 % 1009,1 hPa 0,3 l/m 4,9 km/h (1 Bft) 0,00 h 0,97 h 8,7 km/h (2 Bft)
13.07.2011 14:00 23,5 C 14,7 C 1,4 UV-I 0,1 C 58 % 92 % 3 % 1009,7 hPa 0,1 l/m 7,5 km/h (2 Bft) 0,00 h 1,00 h 11,4 km/h (2 Bft)
13.07.2011 15:00 23,4 C 14,5 C 1,1 UV-I 0,2 C 58 % 92 % 6 % 1010,0 hPa 0,0 l/m 5,8 km/h (2 Bft) 0,00 h 0,90 h 9,0 km/h (2 Bft)
13.07.2011 16:00 23,3 C 14,5 C 1,2 UV-I 0,2 C 58 % 92 % 4 % 1010,2 hPa 0,3 l/m 5,2 km/h (1 Bft) 0,00 h 0,98 h 8,5 km/h (2 Bft)
13.07.2011 17:00 23,3 C 14,5 C 1,2 UV-I 0,0 C 58 % 92 % 1 % 1010,3 hPa 0,1 l/m 8,1 km/h (2 Bft) 0,00 h 1,00 h 12,8 km/h (3 Bft)
13.07.2011 18:00 23,2 C 13,8 C 0,6 UV-I 0,0 C 58 % 92 % 0 % 1010,9 hPa 0,0 l/m 7,7 km/h (2 Bft) 0,00 h 1,00 h 11,0 km/h (2 Bft)
13.07.2011 19:00 22,9 C 13,6 C 0,5 UV-I 0,0 C 58 % 92 % 0 % 1010,9 hPa 0,2 l/m 4,7 km/h (1 Bft) 0,00 h 0,97 h 9,2 km/h (2 Bft)
13.07.2011 20:00 22,8 C 13,4 C 0,3 UV-I 0,0 C 58 % 93 % 0 % 1011,2 hPa 0,1 l/m 6,4 km/h (2 Bft) 0,00 h 1,00 h 10,6 km/h (2 Bft)
13.07.2011 21:00 22,5 C 12,9 C 0,2 UV-I 0,0 C 58 % 93 % 0 % 1011,7 hPa 0,1 l/m 6,4 km/h (2 Bft) 0,00 h 1,00 h 8,2 km/h (2 Bft)
13.07.2011 22:00 22,3 C 12,8 C 0,1 UV-I 0,0 C 59 % 93 % 0 % 1012,0 hPa 0,1 l/m 5,9 km/h (2 Bft) 0,00 h 1,00 h 8,5 km/h (2 Bft)
13.07.2011 23:00 22,2 C 12,7 C 0,1 UV-I 0,0 C 59 % 93 % 0 % 1012,0 hPa 0,1 l/m 6,3 km/h (2 Bft) 0,00 h 1,00 h 10,7 km/h (2 Bft)
14.07.2011 00:00 22,1 C 12,8 C 0,1 UV-I 0,0 C 59 % 93 % 0 % 1012,5 hPa 0,3 l/m 4,8 km/h (1 Bft) 0,00 h 1,00 h 9,4 km/h (2 Bft)
14.07.2011 01:00 21,9 C 12,8 C 0,1 UV-I 0,0 C 59 % 93 % 0 % 1012,2 hPa 0,0 l/m 4,7 km/h (1 Bft) 0,00 h 1,00 h 8,5 km/h (2 Bft)
14.07.2011 02:00 21,8 C 12,9 C 0,1 UV-I 0,0 C 59 % 93 % 0 % 1012,0 hPa 0,0 l/m 5,9 km/h (2 Bft) 0,00 h 1,00 h 9,1 km/h (2 Bft)
14.07.2011 03:00 21,7 C 12,9 C 0,1 UV-I 0,0 C 59 % 93 % 0 % 1011,5 hPa 0,0 l/m 4,8 km/h (1 Bft) 0,00 h 1,00 h 8,0 km/h (2 Bft)
14.07.2011 04:00 21,6 C 13,0 C 0,1 UV-I 0,0 C 59 % 93 % 0 % 1011,4 hPa 0,0 l/m 4,8 km/h (1 Bft) 0,00 h 1,00 h 7,1 km/h (2 Bft)
14.07.2011 05:00 21,5 C 13,1 C 0,1 UV-I 0,0 C 59 % 93 % 0 % 1011,0 hPa 0,1 l/m 6,2 km/h (2 Bft) 0,00 h 1,00 h 11,2 km/h (2 Bft)
14.07.2011 06:00 21,4 C 13,1 C 0,2 UV-I 0,0 C 58 % 91 % 0 % 1010,8 hPa 0,0 l/m 8,3 km/h (2 Bft) 0,00 h 1,00 h 10,9 km/h (2 Bft)
14.07.2011 07:00 21,4 C 13,3 C 0,5 UV-I 0,0 C 57 % 90 % 1 % 1010,9 hPa 0,0 l/m 9,6 km/h (2 Bft) 0,00 h 0,27 h 12,6 km/h (3 Bft)
14.07.2011 08:00 21,2 C 13,5 C 0,6 UV-I 0,1 C 57 % 88 % 4 % 1010,8 hPa 0,0 l/m 9,7 km/h (2 Bft) 0,00 h 0,00 h 13,6 km/h (3 Bft)
14.07.2011 09:00 21,3 C 13,9 C 1,0 UV-I 0,3 C 56 % 85 % 10 % 1010,7 hPa 0,0 l/m 9,9 km/h (2 Bft) 0,00 h 0,00 h 12,2 km/h (2 Bft)
14.07.2011 10:00 21,4 C 14,4 C 2,7 UV-I 1,6 C 56 % 84 % 46 % 1010,6 hPa 0,0 l/m 11,0 km/h (2 Bft) 0,27 h 0,67 h 15,0 km/h (3 Bft)
14.07.2011 11:00 21,7 C 15,6 C 2,7 UV-I 2,1 C 54 % 77 % 60 % 1010,9 hPa 0,0 l/m 13,1 km/h (3 Bft) 0,33 h 0,87 h 18,6 km/h (3 Bft)
14.07.2011 12:00 21,8 C 15,4 C 2,4 UV-I 1,7 C 53 % 77 % 48 % 1010,9 hPa 0,0 l/m 13,0 km/h (3 Bft) 0,00 h 0,80 h 16,8 km/h (3 Bft)
14.07.2011 13:00 21,9 C 15,5 C 2,6 UV-I 1,7 C 53 % 77 % 48 % 1010,8 hPa 0,0 l/m 13,6 km/h (3 Bft) 0,13 h 1,00 h 22,7 km/h (4 Bft)
14.07.2011 14:00 22,0 C 15,6 C 2,2 UV-I 1,2 C 53 % 78 % 35 % 1010,8 hPa 0,0 l/m 12,8 km/h (3 Bft) 0,00 h 1,00 h 14,5 km/h (3 Bft)
14.07.2011 15:00 22,0 C 15,2 C 2,0 UV-I 0,2 C 53 % 80 % 5 % 1011,2 hPa 0,0 l/m 14,8 km/h (3 Bft) 0,00 h 0,90 h 17,8 km/h (3 Bft)
14.07.2011 16:00 21,9 C 14,7 C 1,7 UV-I 0,1 C 54 % 83 % 2 % 1011,4 hPa 0,0 l/m 14,7 km/h (3 Bft) 0,00 h 1,00 h 21,4 km/h (4 Bft)
14.07.2011 17:00 21,7 C 14,6 C 1,3 UV-I 0,1 C 55 % 83 % 2 % 1012,0 hPa 0,3 l/m 12,9 km/h (3 Bft) 0,00 h 1,00 h 19,6 km/h (3 Bft)
14.07.2011 18:00 21,5 C 14,1 C 0,7 UV-I 0,0 C 56 % 85 % 0 % 1012,1 hPa 0,0 l/m 12,1 km/h (2 Bft) 0,00 h 1,00 h 19,9 km/h (4 Bft)
14.07.2011 19:00 21,2 C 13,7 C 0,5 UV-I 0,0 C 57 % 88 % 0 % 1012,7 hPa 0,4 l/m 11,1 km/h (2 Bft) 0,00 h 1,00 h 13,6 km/h (3 Bft)
14.07.2011 20:00 21,0 C 13,4 C 0,3 UV-I 0,0 C 58 % 89 % 0 % 1013,1 hPa 0,2 l/m 9,0 km/h (2 Bft) 0,00 h 1,00 h 11,3 km/h (2 Bft)
14.07.2011 21:00 20,8 C 13,0 C 0,1 UV-I 0,0 C 57 % 90 % 0 % 1013,4 hPa 0,9 l/m 8,9 km/h (2 Bft) 0,00 h 1,00 h 11,9 km/h (2 Bft)
14.07.2011 22:00 20,6 C 12,6 C 0,1 UV-I 0,0 C 58 % 91 % 0 % 1013,7 hPa 0,5 l/m 7,4 km/h (2 Bft) 0,00 h 1,00 h 9,4 km/h (2 Bft)
14.07.2011 23:00 20,5 C 12,4 C 0,1 UV-I 0,0 C 59 % 92 % 0 % 1013,9 hPa 0,2 l/m 7,5 km/h (2 Bft) 0,00 h 1,00 h 10,9 km/h (2 Bft)
15.07.2011 00:00 20,4 C 12,5 C 0,1 UV-I 0,0 C 59 % 91 % 0 % 1013,7 hPa 0,2 l/m 7,4 km/h (2 Bft) 0,00 h 1,00 h 10,2 km/h (2 Bft)
15.07.2011 01:00 20,2 C 12,5 C 0,1 UV-I 0,0 C 59 % 91 % 0 % 1013,5 hPa 0,0 l/m 7,7 km/h (2 Bft) 0,00 h 1,00 h 11,4 km/h (2 Bft)
15.07.2011 02:00 20,2 C 12,9 C 0,1 UV-I 0,0 C 59 % 90 % 0 % 1013,5 hPa 0,0 l/m 9,1 km/h (2 Bft) 0,00 h 1,00 h 12,8 km/h (3 Bft)
15.07.2011 03:00 20,2 C 13,3 C 0,1 UV-I 0,0 C 59 % 89 % 0 % 1013,6 hPa 0,0 l/m 7,7 km/h (2 Bft) 0,00 h 1,00 h 11,2 km/h (2 Bft)
15.07.2011 04:00 20,2 C 13,5 C 0,1 UV-I 0,0 C 59 % 89 % 0 % 1013,9 hPa 0,0 l/m 6,6 km/h (2 Bft) 0,00 h 1,00 h 10,2 km/h (2 Bft)
15.07.2011 05:00 20,2 C 13,6 C 0,1 UV-I 0,0 C 60 % 89 % 0 % 1014,4 hPa 0,0 l/m 6,9 km/h (2 Bft) 0,00 h 1,00 h 9,7 km/h (2 Bft)
15.07.2011 06:00 20,2 C 13,5 C 0,3 UV-I 0,0 C 59 % 88 % 0 % 1014,7 hPa 0,0 l/m 6,8 km/h (2 Bft) 0,00 h 0,53 h 8,6 km/h (2 Bft)
15.07.2011 07:00 20,3 C 13,7 C 0,3 UV-I 0,0 C 59 % 88 % 0 % 1015,3 hPa 0,0 l/m 5,2 km/h (1 Bft) 0,00 h 0,00 h 7,8 km/h (2 Bft)
15.07.2011 08:00 20,3 C 13,9 C 0,5 UV-I 0,1 C 59 % 88 % 3 % 1016,2 hPa 0,0 l/m 5,8 km/h (2 Bft) 0,00 h 0,00 h 8,7 km/h (2 Bft)
15.07.2011 09:00 20,4 C 14,0 C 0,6 UV-I 0,0 C 60 % 89 % 1 % 1016,8 hPa 0,1 l/m 3,2 km/h (1 Bft) 0,00 h 0,37 h 4,9 km/h (1 Bft)
15.07.2011 10:00 20,6 C 15,5 C 1,8 UV-I 1,6 C 60 % 86 % 46 % 1017,4 hPa 0,0 l/m 4,1 km/h (1 Bft) 0,00 h 0,00 h 6,7 km/h (2 Bft)
15.07.2011 11:00 21,0 C 17,3 C 3,7 UV-I 4,4 C 59 % 79 % 85 % 1017,6 hPa 0,0 l/m 4,9 km/h (1 Bft) 0,73 h 0,00 h 7,2 km/h (2 Bft)
15.07.2011 12:00 21,4 C 19,8 C 3,4 UV-I 6,6 C 58 % 66 % 100 % 1017,7 hPa 0,0 l/m 5,8 km/h (2 Bft) 1,00 h 0,00 h 9,0 km/h (2 Bft)
15.07.2011 13:00 22,0 C 21,4 C 4,0 UV-I 5,9 C 56 % 56 % 100 % 1017,6 hPa 0,0 l/m 7,2 km/h (2 Bft) 1,00 h 0,00 h 8,9 km/h (2 Bft)
15.07.2011 14:00 22,8 C 22,4 C 5,2 UV-I 5,1 C 53 % 49 % 100 % 1017,7 hPa 0,0 l/m 6,9 km/h (2 Bft) 1,00 h 0,00 h 9,6 km/h (2 Bft)
15.07.2011 15:00 24,1 C 23,4 C 6,1 UV-I 5,1 C 50 % 42 % 100 % 1018,1 hPa 0,0 l/m 7,6 km/h (2 Bft) 1,00 h 0,00 h 11,7 km/h (2 Bft)
15.07.2011 16:00 25,1 C 24,0 C 7,0 UV-I 4,8 C 47 % 40 % 100 % 1018,4 hPa 0,0 l/m 7,4 km/h (2 Bft) 1,00 h 0,00 h 11,7 km/h (2 Bft)
15.07.2011 17:00 25,5 C 23,5 C 4,8 UV-I 3,7 C 46 % 41 % 90 % 1017,9 hPa 0,0 l/m 7,1 km/h (2 Bft) 0,77 h 0,00 h 10,8 km/h (2 Bft)
15.07.2011 18:00 25,4 C 23,2 C 2,2 UV-I 3,4 C 46 % 44 % 80 % 1017,6 hPa 0,0 l/m 4,9 km/h (1 Bft) 0,63 h 0,00 h 6,9 km/h (2 Bft)
15.07.2011 19:00 25,0 C 22,7 C 1,5 UV-I 0,3 C 47 % 46 % 7 % 1017,1 hPa 0,0 l/m 3,5 km/h (1 Bft) 0,00 h 0,00 h 6,6 km/h (2 Bft)
15.07.2011 20:00 24,6 C 21,6 C 0,7 UV-I 0,0 C 48 % 51 % 0 % 1016,7 hPa 0,0 l/m 0,7 km/h (0 Bft) 0,00 h 0,00 h 1,0 km/h (0 Bft)
15.07.2011 21:00 24,3 C 19,7 C 0,2 UV-I 0,0 C 49 % 59 % 0 % 1016,3 hPa 0,0 l/m 0,0 km/h (0 Bft) 0,00 h 0,00 h 0,0 km/h (0 Bft)
15.07.2011 22:00 23,8 C 17,6 C 0,1 UV-I 0,0 C 51 % 68 % 0 % 1016,1 hPa 0,0 l/m 0,0 km/h (0 Bft) 0,00 h 0,00 h 0,0 km/h (0 Bft)
15.07.2011 23:00 23,4 C 16,3 C 0,1 UV-I 0,0 C 52 % 72 % 0 % 1015,9 hPa 0,0 l/m 0,0 km/h (0 Bft) 0,00 h 0,00 h 0,0 km/h (0 Bft)
16.07.2011 00:00 23,0 C 15,5 C 0,1 UV-I 0,0 C 53 % 74 % 0 % 1015,4 hPa 0,0 l/m 0,9 km/h (0 Bft) 0,00 h 0,00 h 1,9 km/h (1 Bft)
16.07.2011 01:00 22,8 C 15,7 C 0,1 UV-I 0,0 C 53 % 72 % 0 % 1014,9 hPa 0,0 l/m 4,1 km/h (1 Bft) 0,00 h 0,00 h 6,3 km/h (2 Bft)
16.07.2011 02:00 22,6 C 15,3 C 0,1 UV-I 0,0 C 53 % 71 % 0 % 1014,0 hPa 0,0 l/m 2,7 km/h (1 Bft) 0,00 h 0,00 h 4,2 km/h (1 Bft)
16.07.2011 03:00 22,5 C 14,6 C 0,1 UV-I 0,0 C 53 % 73 % 0 % 1013,4 hPa 0,0 l/m 3,5 km/h (1 Bft) 0,00 h 0,00 h 6,1 km/h (2 Bft)
16.07.2011 04:00 22,3 C 14,1 C 0,1 UV-I 0,0 C 53 % 76 % 0 % 1012,7 hPa 0,0 l/m 4,9 km/h (1 Bft) 0,00 h 0,00 h 6,6 km/h (2 Bft)
16.07.2011 05:00 22,2 C 13,6 C 0,1 UV-I 0,0 C 53 % 77 % 0 % 1012,0 hPa 0,0 l/m 1,2 km/h (1 Bft) 0,00 h 0,47 h 1,5 km/h (1 Bft)
16.07.2011 06:00 22,1 C 13,2 C 0,3 UV-I 0,0 C 54 % 79 % 0 % 1011,4 hPa 0,0 l/m 0,5 km/h (0 Bft) 0,00 h 0,27 h 1,4 km/h (1 Bft)
16.07.2011 07:00 22,1 C 14,2 C 0,6 UV-I 0,3 C 54 % 78 % 9 % 1010,8 hPa 0,0 l/m 3,2 km/h (1 Bft) 0,00 h 0,93 h 5,9 km/h (2 Bft)
16.07.2011 08:00 22,2 C 15,8 C 1,1 UV-I 0,8 C 54 % 75 % 24 % 1010,1 hPa 0,0 l/m 6,3 km/h (2 Bft) 0,00 h 0,73 h 9,4 km/h (2 Bft)
16.07.2011 09:00 22,5 C 18,8 C 2,9 UV-I 2,8 C 53 % 67 % 76 % 1009,5 hPa 0,0 l/m 7,7 km/h (2 Bft) 0,30 h 0,13 h 11,5 km/h (2 Bft)
16.07.2011 10:00 22,8 C 21,6 C 2,7 UV-I 2,5 C 53 % 56 % 71 % 1009,0 hPa 0,0 l/m 6,3 km/h (2 Bft) 0,33 h 0,00 h 9,7 km/h (2 Bft)
16.07.2011 11:00 23,2 C 23,7 C 4,9 UV-I 5,0 C 52 % 47 % 100 % 1008,3 hPa 0,0 l/m 7,9 km/h (2 Bft) 1,00 h 0,03 h 12,6 km/h (3 Bft)
16.07.2011 12:00 23,6 C 25,1 C 4,5 UV-I 4,6 C 50 % 43 % 97 % 1007,4 hPa 0,0 l/m 11,8 km/h (2 Bft) 0,90 h 0,00 h 18,3 km/h (3 Bft)
16.07.2011 13:00 23,9 C 25,1 C 4,4 UV-I 3,4 C 49 % 42 % 90 % 1006,4 hPa 0,0 l/m 10,7 km/h (2 Bft) 0,73 h 0,00 h 14,5 km/h (3 Bft)
16.07.2011 14:00 24,3 C 25,4 C 4,3 UV-I 2,9 C 48 % 42 % 84 % 1005,7 hPa 0,0 l/m 12,4 km/h (3 Bft) 0,53 h 0,00 h 17,9 km/h (3 Bft)
16.07.2011 15:00 24,6 C 25,1 C 3,3 UV-I 1,9 C 47 % 43 % 54 % 1004,8 hPa 0,0 l/m 11,5 km/h (2 Bft) 0,00 h 0,00 h 15,0 km/h (3 Bft)
16.07.2011 16:00 24,6 C 24,1 C 1,4 UV-I 0,3 C 47 % 47 % 9 % 1003,7 hPa 0,0 l/m 10,4 km/h (2 Bft) 0,00 h 0,53 h 15,1 km/h (3 Bft)
16.07.2011 17:00 24,3 C 22,0 C 0,9 UV-I 0,0 C 48 % 57 % 0 % 1003,4 hPa 0,2 l/m 6,6 km/h (2 Bft) 0,00 h 0,80 h 11,1 km/h (2 Bft)
16.07.2011 18:00 24,1 C 19,4 C 0,5 UV-I 0,0 C 50 % 71 % 0 % 1002,8 hPa 1,0 l/m 3,3 km/h (1 Bft) 0,00 h 0,80 h 4,7 km/h (1 Bft)
16.07.2011 19:00 23,9 C 18,6 C 0,3 UV-I 0,0 C 52 % 78 % 0 % 1002,0 hPa 0,2 l/m 3,3 km/h (1 Bft) 0,00 h 0,90 h 5,1 km/h (1 Bft)
16.07.2011 20:00 23,6 C 17,8 C 0,1 UV-I 0,0 C 54 % 82 % 0 % 1001,7 hPa 1,4 l/m 5,1 km/h (1 Bft) 0,00 h 1,00 h 7,9 km/h (2 Bft)
16.07.2011 21:00 23,3 C 16,9 C 0,0 UV-I 0,0 C 56 % 86 % 0 % 1000,8 hPa 1,2 l/m 4,7 km/h (1 Bft) 0,00 h 1,00 h 7,6 km/h (2 Bft)
16.07.2011 22:00 23,2 C 16,7 C 0,0 UV-I 0,0 C 57 % 89 % 0 % 1000,2 hPa 1,4 l/m 6,4 km/h (2 Bft) 0,00 h 1,00 h 9,6 km/h (2 Bft)
16.07.2011 23:00 23,1 C 16,5 C 0,0 UV-I 0,0 C 58 % 90 % 0 % 999,3 hPa 2,2 l/m 6,4 km/h (2 Bft) 0,00 h 1,00 h 8,3 km/h (2 Bft)
17.07.2011 00:00 22,9 C 16,4 C 0,0 UV-I 0,0 C 59 % 91 % 0 % 998,2 hPa 2,8 l/m 5,8 km/h (2 Bft) 0,00 h 1,00 h 9,1 km/h (2 Bft)
17.07.2011 01:00 22,8 C 16,3 C 0,0 UV-I 0,0 C 60 % 91 % 0 % 997,6 hPa 0,7 l/m 5,6 km/h (1 Bft) 0,00 h 1,00 h 8,3 km/h (2 Bft)
17.07.2011 02:00 22,7 C 16,2 C 0,0 UV-I 0,0 C 60 % 92 % 0 % 996,8 hPa 0,3 l/m 5,1 km/h (1 Bft) 0,00 h 1,00 h 8,3 km/h (2 Bft)
17.07.2011 03:00 22,6 C 16,3 C 0,0 UV-I 0,0 C 61 % 92 % 0 % 996,0 hPa 0,4 l/m 8,5 km/h (2 Bft) 0,00 h 1,00 h 10,2 km/h (2 Bft)
17.07.2011 04:00 22,6 C 15,7 C 0,0 UV-I 0,0 C 61 % 91 % 0 % 995,8 hPa 1,8 l/m 5,9 km/h (2 Bft) 0,00 h 1,00 h 9,3 km/h (2 Bft)
17.07.2011 05:00 22,4 C 13,9 C 0,1 UV-I 0,0 C 61 % 92 % 0 % 996,6 hPa 0,2 l/m 2,2 km/h (1 Bft) 0,00 h 1,00 h 3,3 km/h (1 Bft)
17.07.2011 06:00 22,2 C 13,8 C 0,2 UV-I 0,0 C 60 % 93 % 0 % 997,0 hPa 0,0 l/m 0,9 km/h (0 Bft) 0,00 h 0,93 h 3,2 km/h (1 Bft)
17.07.2011 07:00 22,1 C 14,1 C 0,6 UV-I 0,1 C 60 % 93 % 1 % 997,2 hPa 0,0 l/m 1,2 km/h (1 Bft) 0,00 h 0,73 h 3,8 km/h (1 Bft)
17.07.2011 08:00 22,2 C 14,9 C 1,6 UV-I 2,3 C 60 % 93 % 61 % 997,3 hPa 0,0 l/m 1,5 km/h (1 Bft) 0,57 h 0,67 h 4,6 km/h (1 Bft)
17.07.2011 09:00 22,4 C 16,5 C 4,1 UV-I 3,8 C 60 % 88 % 94 % 997,5 hPa 0,0 l/m 5,7 km/h (1 Bft) 0,83 h 0,00 h 9,1 km/h (2 Bft)
17.07.2011 10:00 22,7 C 16,5 C 1,9 UV-I 1,4 C 57 % 80 % 40 % 997,7 hPa 0,0 l/m 6,2 km/h (2 Bft) 0,00 h 0,00 h 9,4 km/h (2 Bft)
17.07.2011 11:00 22,8 C 17,1 C 2,7 UV-I 2,6 C 56 % 76 % 70 % 998,1 hPa 0,0 l/m 4,8 km/h (1 Bft) 0,37 h 0,00 h 6,8 km/h (2 Bft)
17.07.2011 12:00 22,9 C 18,5 C 3,4 UV-I 4,3 C 55 % 67 % 98 % 998,2 hPa 0,0 l/m 7,8 km/h (2 Bft) 0,97 h 0,00 h 11,0 km/h (2 Bft)
17.07.2011 13:00 23,2 C 19,7 C 3,9 UV-I 4,8 C 53 % 59 % 99 % 998,7 hPa 0,0 l/m 7,7 km/h (2 Bft) 1,00 h 0,00 h 10,5 km/h (2 Bft)
17.07.2011 14:00 23,8 C 20,8 C 5,2 UV-I 4,8 C 50 % 53 % 100 % 999,0 hPa 0,0 l/m 9,7 km/h (2 Bft) 1,00 h 0,00 h 14,0 km/h (3 Bft)
17.07.2011 15:00 24,4 C 21,0 C 4,2 UV-I 3,7 C 48 % 51 % 93 % 998,9 hPa 0,0 l/m 9,3 km/h (2 Bft) 0,93 h 0,00 h 14,3 km/h (3 Bft)
17.07.2011 16:00 24,4 C 19,0 C 3,1 UV-I 1,4 C 47 % 63 % 37 % 998,8 hPa 0,3 l/m 7,1 km/h (2 Bft) 0,20 h 0,00 h 9,6 km/h (2 Bft)
17.07.2011 17:00 24,9 C 19,7 C 4,2 UV-I 3,0 C 48 % 60 % 78 % 998,9 hPa 0,0 l/m 7,5 km/h (2 Bft) 0,47 h 0,00 h 12,0 km/h (2 Bft)
17.07.2011 18:00 24,9 C 20,3 C 2,1 UV-I 2,3 C 46 % 54 % 64 % 998,7 hPa 0,0 l/m 9,2 km/h (2 Bft) 0,20 h 0,00 h 12,1 km/h (2 Bft)
17.07.2011 19:00 24,5 C 19,7 C 1,1 UV-I 0,2 C 46 % 55 % 5 % 998,6 hPa 0,0 l/m 8,9 km/h (2 Bft) 0,00 h 0,00 h 10,3 km/h (2 Bft)
17.07.2011 20:00 24,1 C 19,2 C 0,5 UV-I 0,0 C 47 % 55 % 0 % 998,5 hPa 0,0 l/m 7,9 km/h (2 Bft) 0,00 h 0,00 h 12,0 km/h (2 Bft)
17.07.2011 21:00 23,6 C 18,1 C 0,2 UV-I 0,0 C 47 % 58 % 0 % 998,6 hPa 0,0 l/m 8,4 km/h (2 Bft) 0,00 h 0,00 h 12,0 km/h (2 Bft)
17.07.2011 22:00 23,2 C 17,2 C 0,1 UV-I 0,0 C 48 % 64 % 0 % 998,6 hPa 0,0 l/m 7,6 km/h (2 Bft) 0,00 h 0,00 h 12,5 km/h (3 Bft)
17.07.2011 23:00 22,9 C 16,7 C 0,0 UV-I 0,0 C 49 % 68 % 0 % 998,8 hPa 0,0 l/m 7,7 km/h (2 Bft) 0,00 h 0,00 h 11,6 km/h (2 Bft)
Min-Datum _ 15.07.11 14.07.11 11.07.11 11.07.11 15.07.11 12.07.11 11.07.11 17.07.11 - 11.07.11 - - 11.07.11
_ Min-Zeit 03:36 22:50 00:00 00:00 18:26 14:02 00:00 04:04 - 00:00 - - 00:00
Minimum _ 20,1 C 12,4 C 0,0 UV-I 0,0 C 45 % 33 % 0 % 995,5 hPa - 0,0 km/h (0 Bft) - - 0,0 km/h (0 Bft)
Max-Datum _ 11.07.11 12.07.11 15.07.11 11.07.11 17.07.11 13.07.11 11.07.11 11.07.11 17.07.11 14.07.11 11.07.11 11.07.11 14.07.11
_ Max-Zeit 18:10 13:34 17:04 11:16 02:42 09:46 09:44 11:04 00:16 13:38 09:42 00:00 18:20
Maximum _ 26,7 C 30,3 C 8,7 UV-I 8,0 C 61 % 93 % 100 % 1020,3 hPa 2,8 l/m 17,3 km/h
S (3 Bft)
0,03 h 0,03 h 52,1 km/h
S-SO (7 Bft)
Durchschnitt _ 23,2 C 17,8 C 1,4 UV-I 1,2 C 55 % 74 % 26 % 1010,8 hPa #21,1 l/m 5,3 km/h (1 Bft) #33:18 h #82:27 h 7,9 km/h (2 Bft)
© 2012 W. Hausmann